Time;durP1;ratioP1;P1;durP2;ratioP2;P2;SDS_P1;SDS_P2;PMS_P1;PMS_P2;Temp;Humidity;BMP_temperature;BMP_pressure;BME280_temperature;BME280_humidity;BME280_pressure;Samples;Min_cycle;Max_cycle;Signal;HPM_P1;HPM_P2
2021/07/11 00:01:34;;;;;;;5.65;5.15;;;22.70;60.40;;;;;;5051545;28;20233;-62
2021/07/11 00:03:59;;;;;;;6.18;5.68;;;22.70;60.40;;;;;;5052439;28;20543;-63
2021/07/11 00:06:25;;;;;;;6.38;5.88;;;22.70;60.40;;;;;;5052202;28;20594;-64
2021/07/11 00:08:54;;;;;;;6.10;5.60;;;22.70;60.40;;;;;;5051706;28;20168;-63
2021/07/11 00:11:19;;;;;;;5.80;5.40;;;22.60;60.30;;;;;;5052563;28;20186;-64
2021/07/11 00:13:45;;;;;;;6.45;5.85;;;22.70;60.40;;;;;;5051255;28;20178;-64
2021/07/11 00:16:10;;;;;;;6.10;5.60;;;22.60;60.30;;;;;;5052545;28;20180;-63
2021/07/11 00:18:36;;;;;;;6.03;5.55;;;22.60;60.30;;;;;;5052456;28;20179;-64
2021/07/11 00:21:01;;;;;;;6.13;5.63;;;22.60;60.30;;;;;;5051579;28;20175;-63
2021/07/11 00:23:27;;;;;;;6.50;6.00;;;22.60;60.30;;;;;;5052021;28;20241;-64
2021/07/11 00:25:52;;;;;;;6.30;5.80;;;22.60;60.30;;;;;;5055852;28;20692;-63
2021/07/11 00:28:18;;;;;;;5.75;5.35;;;22.70;60.40;;;;;;5055467;28;20179;-63
2021/07/11 00:30:43;;;;;;;5.57;5.18;;;22.60;60.40;;;;;;5062080;28;20262;-63
2021/07/11 00:33:09;;;;;;;5.75;5.32;;;22.60;60.30;;;;;;5076138;28;20265;-63
2021/07/11 00:35:34;;;;;;;6.00;5.50;;;22.60;60.30;;;;;;5074936;28;20613;-63
2021/07/11 00:38:00;;;;;;;6.50;5.97;;;22.60;60.40;;;;;;5075858;28;20166;-63
2021/07/11 00:40:25;;;;;;;6.30;5.80;;;22.60;60.40;;;;;;5075710;28;20174;-63
2021/07/11 00:42:51;;;;;;;5.55;5.05;;;22.60;60.40;;;;;;5074812;28;20538;-63
2021/07/11 00:45:19;;;;;;;5.78;5.32;;;22.60;60.40;;;;;;5075540;28;20680;-63
2021/07/11 00:47:47;;;;;;;6.13;5.63;;;22.60;60.50;;;;;;5075122;28;20517;-63
2021/07/11 00:50:15;;;;;;;6.20;5.70;;;22.60;60.50;;;;;;5074914;28;20178;-63
2021/07/11 00:52:41;;;;;;;6.28;5.78;;;22.60;60.60;;;;;;5075295;28;20187;-63
2021/07/11 00:55:09;;;;;;;6.32;5.75;;;22.60;60.50;;;;;;5075393;28;20175;-63
2021/07/11 00:57:35;;;;;;;5.82;5.43;;;22.60;60.50;;;;;;5074407;28;20633;-63
2021/07/11 01:00:04;;;;;;;6.00;5.60;;;22.60;60.50;;;;;;5075736;28;20183;-62
2021/07/11 01:02:59;;;;;;;5.63;5.18;;;22.60;60.50;;;;;;5075406;28;20181;-63
2021/07/11 01:05:25;;;;;;;6.15;5.65;;;22.60;60.60;;;;;;5075296;28;20617;-63
2021/07/11 01:07:56;;;;;;;5.97;5.47;;;22.60;60.60;;;;;;5075096;28;20170;-64
2021/07/11 01:10:40;;;;;;;6.22;5.72;;;22.60;60.60;;;;;;5074675;28;20220;-64
2021/07/11 01:13:08;;;;;;;5.75;5.32;;;22.60;60.60;;;;;;5075417;28;20159;-63
2021/07/11 01:15:34;;;;;;;6.05;5.55;;;22.60;60.60;;;;;;5057405;28;20231;-63
2021/07/11 01:18:06;;;;;;;5.38;4.97;;;22.60;60.60;;;;;;5073341;28;20182;-63
2021/07/11 01:20:40;;;;;;;6.40;5.90;;;22.60;60.70;;;;;;5073876;28;20183;-63
2021/07/11 01:23:08;;;;;;;5.88;5.47;;;22.60;60.60;;;;;;5074888;28;20225;-63
2021/07/11 01:25:46;;;;;;;6.45;5.95;;;22.60;60.80;;;;;;5074205;28;20253;-63
2021/07/11 01:28:17;;;;;;;5.50;5.10;;;22.60;60.60;;;;;;5074981;28;20185;-63
2021/07/11 01:30:43;;;;;;;6.00;5.50;;;22.60;60.60;;;;;;5068555;28;20175;-62
2021/07/11 01:33:11;;;;;;;5.38;4.97;;;22.60;60.80;;;;;;5054398;28;20187;-63
2021/07/11 01:35:38;;;;;;;5.43;5.03;;;22.60;60.90;;;;;;5052816;28;20172;-63
2021/07/11 01:38:04;;;;;;;6.25;5.72;;;22.60;60.70;;;;;;5054100;28;20206;-63
2021/07/11 01:40:30;;;;;;;6.20;5.70;;;22.50;60.80;;;;;;5054303;28;20637;-63
2021/07/11 01:42:56;;;;;;;5.90;5.38;;;22.50;60.70;;;;;;5053422;28;20183;-63
2021/07/11 01:45:21;;;;;;;6.00;5.50;;;22.60;60.90;;;;;;5053981;28;20238;-63
2021/07/11 01:47:47;;;;;;;5.32;4.93;;;22.50;60.90;;;;;;5054533;28;20167;-62
2021/07/11 01:50:12;;;;;;;5.18;4.78;;;22.50;60.70;;;;;;5053638;28;20544;-62
2021/07/11 01:52:39;;;;;;;5.78;5.28;;;22.50;60.80;;;;;;5053403;28;20531;-62
2021/07/11 01:55:07;;;;;;;5.72;5.22;;;22.50;60.80;;;;;;5053131;28;20178;-62
2021/07/11 01:57:33;;;;;;;6.07;5.57;;;22.50;60.70;;;;;;5054035;28;20656;-63
2021/07/11 01:59:59;;;;;;;5.72;5.22;;;22.60;60.90;;;;;;5053894;28;20253;-62
2021/07/11 02:02:33;;;;;;;5.55;5.15;;;22.50;60.80;;;;;;5054508;28;20217;-63
2021/07/11 02:05:03;;;;;;;5.65;5.25;;;22.50;60.90;;;;;;5054453;28;20251;-63
2021/07/11 02:07:29;;;;;;;5.53;5.13;;;22.50;61.70;;;;;;5053480;28;20181;-62
2021/07/11 02:09:54;;;;;;;5.90;5.32;;;22.50;60.80;;;;;;5054007;28;20179;-63
2021/07/11 02:12:21;;;;;;;5.20;4.80;;;22.50;60.80;;;;;;5036325;28;20179;-64
2021/07/11 02:14:46;;;;;;;5.82;5.43;;;22.50;60.90;;;;;;5052088;28;20171;-63
2021/07/11 02:17:13;;;;;;;5.78;5.28;;;22.50;60.90;;;;;;5053090;28;20175;-63
2021/07/11 02:19:40;;;;;;;5.85;5.35;;;22.50;60.90;;;;;;5052564;28;20176;-63
2021/07/11 02:22:10;;;;;;;6.00;5.50;;;22.50;60.90;;;;;;5053336;28;20186;-63
2021/07/11 02:24:41;;;;;;;5.20;4.80;;;22.50;60.90;;;;;;5052329;28;20666;-63
2021/07/11 02:27:07;;;;;;;5.75;5.35;;;22.50;61.00;;;;;;5053550;28;20570;-62
2021/07/11 02:29:38;;;;;;;5.78;5.28;;;22.50;61.00;;;;;;5053172;28;20254;-63
2021/07/11 02:32:05;;;;;;;6.03;5.53;;;22.50;60.90;;;;;;5071158;28;20617;-62
2021/07/11 02:34:31;;;;;;;5.88;5.38;;;22.50;60.90;;;;;;5071390;28;21019;-62
2021/07/11 02:36:57;;;;;;;5.97;5.47;;;22.50;61.00;;;;;;5072350;28;20491;-63
2021/07/11 02:39:23;;;;;;;5.55;5.15;;;22.50;60.90;;;;;;5055776;28;20605;-62
2021/07/11 02:42:00;;;;;;;6.40;5.90;;;22.50;61.00;;;;;;5072521;28;20277;-63
2021/07/11 02:44:25;;;;;;;5.70;5.30;;;22.50;61.00;;;;;;5073380;28;20687;-63
2021/07/11 02:46:59;;;;;;;5.60;5.20;;;22.50;61.00;;;;;;5073074;28;20179;-62
2021/07/11 02:49:28;;;;;;;5.97;5.43;;;22.50;61.00;;;;;;5071064;28;20523;-62
2021/07/11 02:51:55;;;;;;;5.55;5.15;;;22.50;61.10;;;;;;5072040;28;20174;-63
2021/07/11 02:54:26;;;;;;;5.47;5.00;;;22.50;61.10;;;;;;5072289;28;20249;-62
2021/07/11 02:56:54;;;;;;;5.25;4.85;;;22.50;61.10;;;;;;5071215;28;20245;-62
2021/07/11 02:59:19;;;;;;;5.35;4.95;;;22.50;61.20;;;;;;5072211;28;20296;-62
2021/07/11 03:01:45;;;;;;;5.45;5.05;;;22.50;61.20;;;;;;5072832;28;20563;-62
2021/07/11 03:04:12;;;;;;;5.68;5.28;;;22.40;61.20;;;;;;5072563;28;20171;-63
2021/07/11 03:06:37;;;;;;;7.07;5.22;;;22.50;61.20;;;;;;5071541;28;20252;-63
2021/07/11 03:09:03;;;;;;;5.57;5.18;;;22.40;61.20;;;;;;5073244;28;20178;-63
2021/07/11 03:11:30;;;;;;;5.50;5.10;;;22.50;61.30;;;;;;5072383;28;20273;-63
2021/07/11 03:13:56;;;;;;;5.32;4.93;;;22.40;61.30;;;;;;5073028;28;20212;-63
2021/07/11 03:16:21;;;;;;;6.03;5.47;;;22.40;61.40;;;;;;5071621;28;20179;-63
2021/07/11 03:18:47;;;;;;;5.38;4.97;;;22.50;61.40;;;;;;5054643;28;20174;-63
2021/07/11 03:21:13;;;;;;;5.45;5.05;;;22.40;61.30;;;;;;5071733;28;20229;-63
2021/07/11 03:23:41;;;;;;;5.47;5.03;;;22.40;61.30;;;;;;5071717;28;20226;-62
2021/07/11 03:26:07;;;;;;;5.78;5.38;;;22.40;61.30;;;;;;5071875;28;20266;-62
2021/07/11 03:28:34;;;;;;;5.90;5.50;;;22.40;61.40;;;;;;5071205;28;20182;-62
2021/07/11 03:31:00;;;;;;;5.95;5.45;;;22.40;61.50;;;;;;5063095;28;20194;-62
2021/07/11 03:33:26;;;;;;;5.32;4.93;;;22.40;61.50;;;;;;5035311;28;20172;-63
2021/07/11 03:35:58;;;;;;;5.43;5.00;;;22.40;61.40;;;;;;5051449;28;20206;-62
2021/07/11 03:38:27;;;;;;;6.15;5.55;;;22.40;61.40;;;;;;5051081;28;20182;-62
2021/07/11 03:40:55;;;;;;;5.68;5.28;;;22.40;61.40;;;;;;5051047;28;20179;-63
2021/07/11 03:43:22;;;;;;;6.45;5.85;;;22.40;61.40;;;;;;5051683;28;20520;-62
2021/07/11 03:45:54;;;;;;;5.95;5.50;;;22.40;61.50;;;;;;5034314;28;20211;-63
2021/07/11 03:48:25;;;;;;;5.50;5.10;;;22.40;61.60;;;;;;5035683;28;20625;-62
2021/07/11 03:50:52;;;;;;;5.63;5.22;;;22.40;61.60;;;;;;5051257;28;20189;-62
2021/07/11 03:53:20;;;;;;;5.97;5.47;;;22.40;61.60;;;;;;5050770;28;20258;-62
2021/07/11 03:55:48;;;;;;;5.55;5.15;;;22.40;61.60;;;;;;5050898;28;20707;-62
2021/07/11 03:58:13;;;;;;;5.95;5.53;;;22.40;61.60;;;;;;5035459;28;20252;-62
2021/07/11 04:00:39;;;;;;;5.82;5.43;;;22.40;61.60;;;;;;5054258;28;20175;-62
2021/07/11 04:03:05;;;;;;;5.50;5.10;;;22.40;61.70;;;;;;5056656;28;20178;-62
2021/07/11 04:05:33;;;;;;;5.80;5.40;;;22.40;61.60;;;;;;5054939;28;20206;-62
2021/07/11 04:07:58;;;;;;;6.20;5.70;;;22.40;61.60;;;;;;5054797;28;20179;-62
2021/07/11 04:10:25;;;;;;;5.45;5.05;;;22.40;61.60;;;;;;5055197;28;20182;-63
2021/07/11 04:12:51;;;;;;;5.90;5.40;;;22.40;61.70;;;;;;5055550;28;20561;-63
2021/07/11 04:15:16;;;;;;;5.72;5.32;;;22.40;61.70;;;;;;5055292;28;20175;-63
2021/07/11 04:17:45;;;;;;;6.07;5.57;;;22.40;61.70;;;;;;5056265;28;20225;-63
2021/07/11 04:20:11;;;;;;;5.63;5.13;;;22.40;61.70;;;;;;5055620;28;20612;-63
2021/07/11 04:22:37;;;;;;;5.90;5.40;;;22.40;61.70;;;;;;5038018;28;20227;-63
2021/07/11 04:25:03;;;;;;;5.47;5.07;;;22.40;61.70;;;;;;5055124;28;20221;-63
2021/07/11 04:27:28;;;;;;;5.63;5.20;;;22.40;61.70;;;;;;5054398;28;20195;-62
2021/07/11 04:29:54;;;;;;;6.00;5.50;;;22.40;61.80;;;;;;5054556;28;20207;-62
2021/07/11 04:32:19;;;;;;;5.80;5.30;;;22.40;61.80;;;;;;5057556;28;20515;-62
2021/07/11 04:34:45;;;;;;;5.80;5.35;;;22.40;61.80;;;;;;5074013;28;20196;-63
2021/07/11 04:37:11;;;;;;;5.53;5.13;;;22.40;61.80;;;;;;5076117;28;20178;-63
2021/07/11 04:39:37;;;;;;;6.53;5.85;;;22.40;61.70;;;;;;5075763;28;20174;-63
2021/07/11 04:42:03;;;;;;;5.00;4.60;;;22.40;61.90;;;;;;5075068;28;20643;-62
2021/07/11 04:44:28;;;;;;;5.75;5.35;;;22.40;61.80;;;;;;5075962;28;20262;-62
2021/07/11 04:46:54;;;;;;;5.80;5.40;;;22.40;61.80;;;;;;5075438;28;20636;-62
2021/07/11 04:49:21;;;;;;;5.60;5.20;;;22.30;61.70;;;;;;5074984;28;20287;-62
2021/07/11 04:51:47;;;;;;;5.80;5.38;;;22.30;61.70;;;;;;5075460;28;20206;-62
2021/07/11 04:54:12;;;;;;;6.15;5.68;;;22.40;61.80;;;;;;5074280;28;20593;-63
2021/07/11 04:56:38;;;;;;;5.50;5.10;;;22.40;61.80;;;;;;5074858;28;20179;-62
2021/07/11 04:59:04;;;;;;;6.15;5.65;;;22.40;61.80;;;;;;5075766;28;20174;-62
2021/07/11 05:01:29;;;;;;;5.55;5.15;;;22.40;61.70;;;;;;5075291;28;20265;-62
2021/07/11 05:03:55;;;;;;;5.90;5.50;;;22.40;61.80;;;;;;5075029;28;20174;-62
2021/07/11 05:06:20;;;;;;;5.72;5.32;;;22.40;61.80;;;;;;5075272;28;20199;-62
2021/07/11 05:08:46;;;;;;;5.53;5.13;;;22.40;61.80;;;;;;5074849;28;20166;-63
2021/07/11 05:11:12;;;;;;;5.60;5.10;;;22.40;61.80;;;;;;5073847;28;20182;-63
2021/07/11 05:13:37;;;;;;;6.10;5.60;;;22.40;61.80;;;;;;5074855;28;20546;-63
2021/07/11 05:16:03;;;;;;;5.30;4.90;;;22.40;61.80;;;;;;5074546;28;20209;-63
2021/07/11 05:18:28;;;;;;;5.45;5.05;;;22.40;61.80;;;;;;5075443;28;20179;-63
2021/07/11 05:20:54;;;;;;;6.07;5.55;;;22.40;61.80;;;;;;5074762;28;20174;-62
2021/07/11 05:23:20;;;;;;;5.95;5.50;;;22.40;61.80;;;;;;5074205;28;20573;-62
2021/07/11 05:25:45;;;;;;;6.07;5.57;;;22.40;61.80;;;;;;5074945;28;20216;-62
2021/07/11 05:28:10;;;;;;;6.00;5.50;;;22.40;61.80;;;;;;5075229;28;20170;-62
2021/07/11 05:30:36;;;;;;;6.03;5.53;;;22.40;61.70;;;;;;5068618;28;20215;-62
2021/07/11 05:33:02;;;;;;;6.05;5.55;;;22.40;61.70;;;;;;5054931;28;20588;-62
2021/07/11 05:35:31;;;;;;;5.65;5.20;;;22.40;61.70;;;;;;5054880;28;20167;-63
2021/07/11 05:37:56;;;;;;;5.88;5.47;;;22.40;61.60;;;;;;5054058;28;20179;-62
2021/07/11 05:40:22;;;;;;;5.38;4.88;;;22.40;61.60;;;;;;5054774;28;20229;-63
2021/07/11 05:42:49;;;;;;;6.05;5.55;;;22.40;61.60;;;;;;5054455;28;20175;-62
2021/07/11 05:45:14;;;;;;;5.93;5.53;;;22.50;61.60;;;;;;5054195;28;20203;-62
2021/07/11 05:47:40;;;;;;;5.90;5.45;;;22.50;61.60;;;;;;5054179;28;20517;-62
2021/07/11 05:50:06;;;;;;;5.70;5.20;;;22.50;61.60;;;;;;5054632;28;20184;-62
2021/07/11 05:52:31;;;;;;;5.18;4.78;;;22.50;61.60;;;;;;5053681;28;20250;-62
2021/07/11 05:54:57;;;;;;;6.13;5.53;;;22.50;61.60;;;;;;5054454;28;20641;-62
2021/07/11 05:57:24;;;;;;;6.10;5.55;;;22.50;61.70;;;;;;5054621;28;20178;-62
2021/07/11 05:59:49;;;;;;;5.63;5.22;;;22.50;61.60;;;;;;5053538;28;20187;-62
2021/07/11 06:02:15;;;;;;;5.28;4.88;;;22.50;61.60;;;;;;5054535;28;20177;-62
2021/07/11 06:04:43;;;;;;;5.80;5.40;;;22.50;61.60;;;;;;5054092;28;20214;-62
2021/07/11 06:07:09;;;;;;;6.07;5.60;;;22.50;61.60;;;;;;5053391;28;20268;-62
2021/07/11 06:09:34;;;;;;;6.10;5.55;;;22.50;62.40;;;;;;5054110;28;20629;-63
2021/07/11 06:12:00;;;;;;;5.80;5.35;;;22.50;61.60;;;;;;5053990;28;20217;-63
2021/07/11 06:14:28;;;;;;;5.50;5.10;;;22.50;61.60;;;;;;5053654;28;20171;-62
2021/07/11 06:16:54;;;;;;;5.70;5.30;;;22.50;61.60;;;;;;5053562;28;20199;-62
2021/07/11 06:19:19;;;;;;;5.70;5.30;;;22.50;61.60;;;;;;5053245;28;20241;-62
2021/07/11 06:21:45;;;;;;;5.55;5.15;;;22.60;61.60;;;;;;5053630;28;20258;-62
2021/07/11 06:24:10;;;;;;;5.15;4.75;;;22.60;61.60;;;;;;5053604;28;20222;-62
2021/07/11 06:26:36;;;;;;;5.20;4.80;;;22.60;61.60;;;;;;5053051;28;21001;-62
2021/07/11 06:29:02;;;;;;;5.68;5.10;;;22.60;61.50;;;;;;5054218;28;20195;-62
2021/07/11 06:31:28;;;;;;;5.63;5.22;;;22.60;61.50;;;;;;5065979;28;20185;-63
2021/07/11 06:33:53;;;;;;;5.40;5.00;;;22.60;61.50;;;;;;5072598;28;20224;-62
2021/07/11 06:36:19;;;;;;;5.30;4.90;;;22.60;61.50;;;;;;5073820;28;20174;-62
2021/07/11 06:38:44;;;;;;;5.53;5.13;;;22.60;61.50;;;;;;5073316;28;20181;-62
2021/07/11 06:41:10;;;;;;;4.90;4.60;;;22.60;61.40;;;;;;5072829;28;20185;-63
2021/07/11 06:43:35;;;;;;;5.00;4.70;;;22.60;61.50;;;;;;5073235;28;20611;-62
2021/07/11 06:46:04;;;;;;;5.43;5.03;;;22.60;61.50;;;;;;5073550;28;20614;-63
2021/07/11 06:48:31;;;;;;;5.65;5.25;;;22.60;61.60;;;;;;5072471;28;20178;-62
2021/07/11 06:50:57;;;;;;;5.70;5.30;;;22.60;61.50;;;;;;5073333;28;20608;-62
2021/07/11 06:53:22;;;;;;;5.22;4.82;;;22.60;61.60;;;;;;5073652;28;20206;-62
2021/07/11 06:55:48;;;;;;;5.65;5.25;;;22.60;61.60;;;;;;5072406;28;20202;-62
2021/07/11 06:58:13;;;;;;;5.60;5.20;;;22.70;61.70;;;;;;5073490;28;20166;-63
2021/07/11 07:00:42;;;;;;;5.43;5.03;;;22.70;61.70;;;;;;5073061;28;20178;-62
2021/07/11 07:03:07;;;;;;;4.85;4.45;;;22.70;61.70;;;;;;5072388;28;20680;-62
2021/07/11 07:05:33;;;;;;;5.30;4.90;;;22.70;61.70;;;;;;5072807;28;20309;-62
2021/07/11 07:07:58;;;;;;;5.47;4.97;;;22.70;61.80;;;;;;5073043;28;20167;-63
2021/07/11 07:10:24;;;;;;;5.65;5.25;;;22.70;61.80;;;;;;5072550;28;20178;-63
2021/07/11 07:12:49;;;;;;;5.88;5.43;;;22.60;61.80;;;;;;5073026;28;20189;-63
2021/07/11 07:15:15;;;;;;;5.55;5.15;;;22.70;61.70;;;;;;5072942;28;20198;-63
2021/07/11 07:17:41;;;;;;;5.72;5.32;;;22.70;61.50;;;;;;5071982;28;20170;-62
2021/07/11 07:20:08;;;;;;;5.47;5.07;;;22.70;61.60;;;;;;5073017;28;20547;-63
2021/07/11 07:22:34;;;;;;;5.57;5.18;;;22.80;61.70;;;;;;5071921;28;20214;-61
2021/07/11 07:24:59;;;;;;;5.45;5.05;;;22.70;61.60;;;;;;5072665;28;20543;-62
2021/07/11 07:27:25;;;;;;;5.90;5.40;;;22.80;61.60;;;;;;5072926;28;20195;-63
2021/07/11 07:29:50;;;;;;;5.50;5.10;;;22.80;61.60;;;;;;5071863;28;20212;-61
2021/07/11 07:32:16;;;;;;;5.88;5.47;;;22.90;61.40;;;;;;5053924;28;20237;-63
2021/07/11 07:34:41;;;;;;;6.07;5.57;;;22.90;61.30;;;;;;5051810;28;20171;-61
2021/07/11 07:37:07;;;;;;;5.70;5.30;;;22.90;61.50;;;;;;5051920;28;20630;-61
2021/07/11 07:39:32;;;;;;;5.60;5.20;;;22.80;61.60;;;;;;5052658;28;20171;-60
2021/07/11 07:41:58;;;;;;;5.88;5.47;;;22.80;61.70;;;;;;5052923;28;20186;-64
2021/07/11 07:44:23;;;;;;;5.88;5.38;;;22.80;61.70;;;;;;5051827;28;20629;-66
2021/07/11 07:46:49;;;;;;;6.32;5.72;;;22.80;61.80;;;;;;5052657;28;20589;-71
2021/07/11 07:49:15;;;;;;;6.30;5.70;;;22.90;62.20;;;;;;5052796;28;20171;-70
2021/07/11 07:51:40;;;;;;;6.28;5.78;;;22.90;62.10;;;;;;5051781;28;20221;-70
2021/07/11 07:54:06;;;;;;;6.00;5.50;;;22.80;62.10;;;;;;5052854;28;20167;-70
2021/07/11 07:56:34;;;;;;;6.57;6.07;;;22.80;62.20;;;;;;5052348;28;20167;-67
2021/07/11 07:59:00;;;;;;;5.93;5.43;;;22.80;62.30;;;;;;5051716;28;20179;-67
2021/07/11 08:01:25;;;;;;;5.78;5.30;;;22.70;62.40;;;;;;5052401;28;20653;-69
2021/07/11 08:03:51;;;;;;;6.07;5.57;;;22.70;62.50;;;;;;5052258;28;20175;-69
2021/07/11 08:06:17;;;;;;;5.60;5.20;;;22.70;62.60;;;;;;5051920;28;20222;-71
2021/07/11 08:08:42;;;;;;;5.80;5.40;;;22.70;63.40;;;;;;5052215;28;20213;-71
2021/07/11 08:11:08;;;;;;;6.13;5.63;;;22.70;62.70;;;;;;5052542;28;20186;-69
2021/07/11 08:13:37;;;;;;;5.88;5.30;;;22.60;62.70;;;;;;5051569;28;20171;-70
2021/07/11 08:16:04;;;;;;;6.30;5.80;;;22.60;62.80;;;;;;5052650;28;20175;-69
2021/07/11 08:18:29;;;;;;;5.35;4.95;;;22.60;62.80;;;;;;5052090;28;20187;-69
2021/07/11 08:20:55;;;;;;;6.18;5.65;;;22.60;62.70;;;;;;5051882;28;20204;-69
2021/07/11 08:23:20;;;;;;;6.20;5.22;;;22.60;62.70;;;;;;5052041;28;20285;-68
2021/07/11 08:25:46;;;;;;;6.40;5.90;;;22.60;62.80;;;;;;5052226;28;20209;-68
2021/07/11 08:28:12;;;;;;;5.70;5.20;;;22.60;62.90;;;;;;5051837;28;20810;-68
2021/07/11 08:30:38;;;;;;;6.28;5.78;;;22.60;62.80;;;;;;5057635;28;20178;-68
2021/07/11 08:33:03;;;;;;;6.20;5.72;;;22.50;62.80;;;;;;5071744;28;20170;-69
2021/07/11 08:35:29;;;;;;;6.32;5.72;;;22.50;62.90;;;;;;5072475;28;20181;-69
2021/07/11 08:37:54;;;;;;;6.07;5.57;;;22.50;63.00;;;;;;5072634;28;20174;-69
2021/07/11 08:40:20;;;;;;;5.85;5.45;;;22.50;63.00;;;;;;5071694;28;20277;-70
2021/07/11 08:42:45;;;;;;;6.05;5.57;;;22.50;62.90;;;;;;5071832;28;20258;-69
2021/07/11 08:45:12;;;;;;;5.95;5.45;;;22.50;62.90;;;;;;5055074;28;20210;-69
2021/07/11 08:47:38;;;;;;;6.35;5.85;;;22.50;62.90;;;;;;5075020;28;20254;-69
2021/07/11 08:50:07;;;;;;;6.00;5.50;;;22.50;62.90;;;;;;5056195;28;20211;-69
2021/07/11 08:52:34;;;;;;;6.15;5.65;;;22.50;62.80;;;;;;5055844;28;20250;-70
2021/07/11 08:55:00;;;;;;;6.20;5.70;;;22.50;62.90;;;;;;5055079;28;20202;-69
2021/07/11 08:57:25;;;;;;;6.30;5.70;;;22.50;62.90;;;;;;5055724;28;20197;-73
2021/07/11 08:59:51;;;;;;;6.75;6.15;;;22.50;63.20;;;;;;5055335;28;20195;-67
2021/07/11 09:02:16;;;;;;;6.80;6.10;;;22.60;63.40;;;;;;5054730;28;20202;-68
2021/07/11 09:04:42;;;;;;;6.65;5.63;;;22.50;63.40;;;;;;5055328;28;20202;-67
2021/07/11 09:07:15;;;;;;;8.00;5.85;;;22.60;63.30;;;;;;5055463;28;20654;-69
2021/07/11 09:09:40;;;;;;;6.75;6.25;;;22.60;63.40;;;;;;5054173;28;20179;-70
2021/07/11 09:12:08;;;;;;;6.78;6.18;;;22.60;63.30;;;;;;5055249;28;20182;-70
2021/07/11 09:14:35;;;;;;;6.20;5.60;;;22.60;63.30;;;;;;5054905;28;20220;-70
2021/07/11 09:17:02;;;;;;;6.30;5.72;;;22.60;63.30;;;;;;5054662;28;20641;-72
2021/07/11 09:19:29;;;;;;;6.65;6.13;;;22.70;63.40;;;;;;5055451;28;20175;-70
2021/07/11 09:22:25;;;;;;;6.88;6.35;;;22.70;63.30;;;;;;5055403;28;20175;-70
2021/07/11 09:24:55;;;;;;;6.47;5.88;;;22.70;63.30;;;;;;5051647;28;20230;-70
2021/07/11 09:27:22;;;;;;;5.85;5.45;;;22.70;63.20;;;;;;5054905;28;20653;-69
2021/07/11 09:29:48;;;;;;;6.30;5.80;;;22.70;63.20;;;;;;5053875;28;20522;-72
2021/07/11 09:32:26;;;;;;;6.13;5.53;;;22.70;63.20;;;;;;5055046;28;20181;-71
2021/07/11 09:34:52;;;;;;;8.10;5.90;;;22.80;63.20;;;;;;5054554;28;20697;-69
2021/07/11 09:37:17;;;;;;;6.82;6.15;;;22.80;63.20;;;;;;5054249;28;20262;-71
2021/07/11 09:39:54;;;;;;;6.20;5.70;;;22.80;63.90;;;;;;5054619;28;20171;-70
2021/07/11 09:42:23;;;;;;;6.43;5.93;;;22.90;63.00;;;;;;5055120;28;20179;-70
2021/07/11 09:44:49;;;;;;;6.65;6.07;;;22.90;62.80;;;;;;5053781;28;20549;-70
2021/07/11 09:47:19;;;;;;;7.40;6.07;;;23.00;62.60;;;;;;5054926;28;20167;-71
2021/07/11 09:49:56;;;;;;;7.35;6.20;;;23.00;62.60;;;;;;5054217;28;20320;-70
2021/07/11 09:52:21;;;;;;;6.78;5.68;;;23.10;62.40;;;;;;5053831;28;20644;-71
2021/07/11 09:54:57;;;;;;;6.10;5.60;;;23.20;62.30;;;;;;5054865;28;20167;-69
2021/07/11 09:57:36;;;;;;;7.20;6.50;;;23.20;62.20;;;;;;5053508;28;20262;-70
2021/07/11 10:00:16;;;;;;;6.30;5.80;;;23.20;62.10;;;;;;5054302;28;20183;-70
2021/07/11 10:02:42;;;;;;;6.85;6.32;;;23.30;62.20;;;;;;5053742;28;20221;-69
2021/07/11 10:05:08;;;;;;;6.78;6.22;;;23.30;62.30;;;;;;5053587;28;20295;-72
2021/07/11 10:07:33;;;;;;;7.00;6.40;;;23.30;62.30;;;;;;5053872;28;20752;-74
2021/07/11 10:09:59;;;;;;;7.47;6.88;;;23.30;62.40;;;;;;5054332;28;20237;-72
2021/07/11 10:12:25;;;;;;;7.68;7.00;;;23.40;62.40;;;;;;5053286;28;20187;-71
2021/07/11 10:14:50;;;;;;;6.82;6.32;;;23.40;62.60;;;;;;5053838;28;20625;-72
2021/07/11 10:17:16;;;;;;;8.63;6.57;;;23.30;62.60;;;;;;5053740;28;20221;-72
2021/07/11 10:19:46;;;;;;;6.75;6.25;;;23.30;62.70;;;;;;5053206;28;20262;-73
2021/07/11 10:22:12;;;;;;;8.07;7.07;;;23.30;62.70;;;;;;5052845;28;20617;-71
2021/07/11 10:24:43;;;;;;;7.55;6.85;;;23.40;62.80;;;;;;5053651;28;20269;-71
2021/07/11 10:27:16;;;;;;;8.43;7.20;;;23.40;62.80;;;;;;5053366;28;20546;-70
2021/07/11 10:29:44;;;;;;;8.27;7.57;;;23.40;62.80;;;;;;5053483;28;20178;-73
2021/07/11 10:32:22;;;;;;;7.70;7.00;;;23.40;62.80;;;;;;5054472;28;20248;-71
2021/07/11 10:34:48;;;;;;;7.15;6.55;;;23.40;62.80;;;;;;5053310;28;20261;-71
2021/07/11 10:37:15;;;;;;;7.38;6.65;;;23.40;62.80;;;;;;5054252;28;20258;-73
2021/07/11 10:39:41;;;;;;;8.38;7.57;;;23.40;62.90;;;;;;5052911;28;20654;-73
2021/07/11 10:42:08;;;;;;;7.97;7.28;;;23.40;62.80;;;;;;5053855;28;20592;-73
2021/07/11 10:44:33;;;;;;;7.95;7.35;;;23.40;62.70;;;;;;5053843;28;20187;-73
2021/07/11 10:47:00;;;;;;;7.82;7.18;;;23.40;62.70;;;;;;5053287;28;20668;-72
2021/07/11 10:49:28;;;;;;;8.02;7.25;;;23.50;62.50;;;;;;5054038;28;20222;-72
2021/07/11 10:51:58;;;;;;;8.00;7.35;;;23.50;62.40;;;;;;5053572;28;20266;-73
2021/07/11 10:54:30;;;;;;;8.20;7.40;;;23.40;62.50;;;;;;5053656;28;20175;-72
2021/07/11 10:57:17;;;;;;;8.05;7.32;;;23.40;62.60;;;;;;5054312;28;20175;-72
2021/07/11 10:59:45;;;;;;;8.00;7.20;;;23.50;62.60;;;;;;5050301;28;20183;-71
2021/07/11 11:02:17;;;;;;;9.35;8.15;;;23.50;62.40;;;;;;5052702;28;20278;-72
2021/07/11 11:04:44;;;;;;;9.13;7.90;;;23.50;62.40;;;;;;5053005;28;20554;-73
2021/07/11 11:07:17;;;;;;;8.75;7.72;;;23.60;62.20;;;;;;5052300;28;20175;-72
2021/07/11 11:09:49;;;;;;;10.93;8.25;;;23.50;62.40;;;;;;5051616;28;20179;-75
2021/07/11 11:12:22;;;;;;;9.85;8.90;;;23.60;62.30;;;;;;5053244;28;20266;-72
2021/07/11 11:14:52;;;;;;;10.60;9.50;;;23.60;62.10;;;;;;5052188;28;20178;-73
2021/07/11 11:17:36;;;;;;;12.57;9.60;;;23.70;62.10;;;;;;5053154;28;20214;-75
2021/07/11 11:20:14;;;;;;;11.32;10.18;;;23.70;62.00;;;;;;5053953;28;20175;-74
2021/07/11 11:22:53;;;;;;;11.35;10.10;;;23.70;62.20;;;;;;5052094;28;20227;-74
2021/07/11 11:25:19;;;;;;;14.95;11.13;;;23.60;62.50;;;;;;5051868;28;20723;-71
2021/07/11 11:27:45;;;;;;;16.92;10.48;;;23.60;62.40;;;;;;5052601;28;20622;-71
2021/07/11 11:30:13;;;;;;;14.02;10.55;;;23.70;62.30;;;;;;5052046;28;20179;-70
2021/07/11 11:32:39;;;;;;;13.38;9.80;;;23.60;62.50;;;;;;5052749;28;20181;-71
2021/07/11 11:35:05;;;;;;;11.23;10.13;;;23.60;62.60;;;;;;5051780;28;20171;-72
2021/07/11 11:37:37;;;;;;;18.52;10.60;;;23.60;62.70;;;;;;5051821;28;20206;-72
2021/07/11 11:40:07;;;;;;;11.43;9.40;;;23.50;62.70;;;;;;5052739;28;20182;-72
2021/07/11 11:42:33;;;;;;;11.73;10.43;;;23.50;62.80;;;;;;5051090;28;20599;-72
2021/07/11 11:45:08;;;;;;;11.68;10.45;;;23.50;62.80;;;;;;5050994;28;20206;-69
2021/07/11 11:47:34;;;;;;;13.32;10.77;;;23.60;63.10;;;;;;5052590;28;20182;-70
2021/07/11 11:50:17;;;;;;;12.30;9.88;;;23.60;62.90;;;;;;5052102;28;20175;-71
2021/07/11 11:52:46;;;;;;;11.07;10.02;;;23.80;62.40;;;;;;5052477;28;20253;-69
2021/07/11 11:55:12;;;;;;;12.23;9.65;;;23.80;62.20;;;;;;5052931;28;20637;-70
2021/07/11 11:57:40;;;;;;;10.27;9.27;;;23.80;62.10;;;;;;5052484;28;20190;-69
2021/07/11 12:00:06;;;;;;;10.98;9.07;;;23.80;62.10;;;;;;5052744;28;20187;-69
2021/07/11 12:02:32;;;;;;;10.45;9.10;;;23.80;62.10;;;;;;5052385;28;20175;-69
2021/07/11 12:05:13;;;;;;;9.93;9.00;;;23.90;62.20;;;;;;5051892;28;20215;-68
2021/07/11 12:07:39;;;;;;;11.05;8.63;;;23.90;62.10;;;;;;5052411;28;20178;-68
2021/07/11 12:10:05;;;;;;;12.65;10.07;;;23.80;62.00;;;;;;5052770;28;20171;-69
2021/07/11 12:12:31;;;;;;;10.57;9.55;;;23.80;61.80;;;;;;5051841;28;20187;-69
2021/07/11 12:14:56;;;;;;;11.00;9.93;;;23.80;61.90;;;;;;5052523;28;20171;-69
2021/07/11 12:17:22;;;;;;;10.50;9.43;;;23.80;61.90;;;;;;5052400;28;20175;-69
2021/07/11 12:19:51;;;;;;;9.88;8.85;;;23.80;61.80;;;;;;5051901;28;20205;-68
2021/07/11 12:22:27;;;;;;;10.95;9.57;;;23.80;61.90;;;;;;5056058;28;20168;-67
2021/07/11 12:25:13;;;;;;;9.43;8.60;;;23.80;61.90;;;;;;5056120;28;20222;-70
2021/07/11 12:27:41;;;;;;;10.63;9.55;;;23.80;61.90;;;;;;5055823;28;20653;-71
2021/07/11 12:30:15;;;;;;;9.43;8.48;;;23.80;62.00;;;;;;5056187;28;20216;-70
2021/07/11 12:32:51;;;;;;;9.27;8.38;;;23.80;62.00;;;;;;5055011;28;20244;-71
2021/07/11 12:35:17;;;;;;;9.85;8.95;;;23.80;62.00;;;;;;5056437;28;20179;-71
2021/07/11 12:37:56;;;;;;;9.32;8.43;;;23.80;62.00;;;;;;5055955;28;20533;-71
2021/07/11 12:40:27;;;;;;;9.65;8.80;;;23.80;62.00;;;;;;5055323;28;20233;-71
2021/07/11 12:43:21;;;;;;;8.85;7.95;;;23.80;62.10;;;;;;5059650;28;20179;-73
2021/07/11 12:46:04;;;;;;;9.77;8.85;;;23.80;62.10;;;;;;5055826;28;20219;-75
2021/07/11 12:48:42;;;;;;;10.40;7.97;;;23.70;62.10;;;;;;5055680;28;20203;-71